Grand-Sault, Canada
Current Conditions -  °F | °C
As of 6:54 AM on Thursday 23 Oct 2014 (Local Time) from KCAR Reporting Station
Overcast Overcast  
Wind Chill: 38°   Ceiling: 4400
Heat Index: 43°   Visibility: 10mi
Dew Point: 37°   Wind: 9mph
Humidity: 80%   Direction: 30°NNE
Pressure: 30.2"   Gusts: NA
Location:  47.05°N, 67.73°W
Report Text: KCAR 230954Z AUTO 03008KT 10SM BKN044 BKN060 OVC085 06/03 A3020 RMK AO2 RAE10 SLP232 P0000 T00610028 $
Loading
Personal Weather Stations






























Interactive Weather Map
Tropical Storm Tracking
New forecast layout! Learn more

10-Day Weather Forecast

Advertisements
Track Severe Weather on mobile